createdAt,value
2018-05-29T00:02:04.965Z,23.47
2018-05-29T00:04:33.346Z,27.40
2018-05-29T00:07:01.752Z,27.20
2018-05-29T00:09:29.277Z,29.90
2018-05-29T00:11:56.907Z,29.13
2018-05-29T00:14:24.469Z,29.07
2018-05-29T00:16:51.980Z,29.53
2018-05-29T00:19:19.549Z,33.93
2018-05-29T00:21:47.099Z,32.57
2018-05-29T00:24:14.648Z,39.23
2018-05-29T00:26:42.187Z,34.60
2018-05-29T00:29:09.756Z,39.33
2018-05-29T00:31:38.122Z,38.43
2018-05-29T00:34:06.428Z,37.53
2018-05-29T00:36:34.226Z,37.80
2018-05-29T00:39:01.816Z,41.57
2018-05-29T00:41:29.401Z,36.97
2018-05-29T00:43:57.014Z,36.67
2018-05-29T00:46:24.568Z,40.63
2018-05-29T00:48:52.079Z,42.10
2018-05-29T00:51:19.654Z,38.73
2018-05-29T00:53:47.320Z,36.83
2018-05-29T00:56:14.894Z,48.83
2018-05-29T00:58:42.497Z,45.13
2018-05-29T01:01:10.026Z,47.83
2018-05-29T01:03:37.583Z,47.10
2018-05-29T01:06:05.180Z,50.13
2018-05-29T01:08:32.695Z,49.83
2018-05-29T01:11:00.236Z,46.57
2018-05-29T01:13:27.811Z,47.60
2018-05-29T01:15:55.399Z,45.57
2018-05-29T01:18:23.752Z,46.17
2018-05-29T01:20:51.343Z,45.17
2018-05-29T01:23:18.926Z,44.67
2018-05-29T01:25:46.517Z,43.93
2018-05-29T01:28:14.148Z,46.63
2018-05-29T01:30:41.680Z,43.80
2018-05-29T01:33:10.008Z,42.57
2018-05-29T01:35:37.583Z,33.73
2018-05-29T01:38:05.212Z,34.07
2018-05-29T01:40:32.995Z,28.80
2018-05-29T01:43:00.529Z,28.43
2018-05-29T01:45:28.136Z,26.27
2018-05-29T01:47:55.683Z,24.33
2018-05-29T01:50:23.268Z,23.83
2018-05-29T01:52:50.868Z,26.17
2018-05-29T01:55:18.422Z,26.80
2018-05-29T01:57:46.001Z,24.07
2018-05-29T02:00:13.545Z,27.03
2018-05-29T02:02:41.299Z,25.73
2018-05-29T02:05:08.825Z,37.53
2018-05-29T02:07:36.611Z,42.17
2018-05-29T02:10:04.156Z,45.58
2018-05-29T02:12:31.740Z,43.57
2018-05-29T02:14:59.268Z,50.07
2018-05-29T02:17:26.825Z,49.10
2018-05-29T02:19:54.356Z,58.57
2018-05-29T02:22:22.672Z,64.00
2018-05-29T02:24:50.240Z,65.03
2018-05-29T02:27:17.775Z,58.63
2018-05-29T02:29:45.347Z,55.57
2018-05-29T02:32:12.887Z,52.50
2018-05-29T02:34:40.449Z,40.57
2018-05-29T02:37:08.011Z,45.50
2018-05-29T02:39:35.576Z,42.90
2018-05-29T02:42:03.159Z,39.73
2018-05-29T02:44:30.710Z,44.67
2018-05-29T02:46:58.266Z,43.90
2018-05-29T02:49:25.867Z,35.73
2018-05-29T02:51:53.924Z,43.17
2018-05-29T02:54:21.454Z,38.60
2018-05-29T02:56:49.012Z,39.63
2018-05-29T02:59:16.572Z,36.30
2018-05-29T03:01:44.138Z,30.03
2018-05-29T03:04:11.666Z,26.03
2018-05-29T03:06:39.251Z,27.47
2018-05-29T03:09:06.859Z,25.20
2018-05-29T03:11:34.434Z,25.57
2018-05-29T03:14:02.840Z,25.17
2018-05-29T03:16:30.378Z,20.20
2018-05-29T03:18:57.946Z,20.77
2018-05-29T03:21:25.537Z,21.37
2018-05-29T03:23:53.992Z,18.67
2018-05-29T03:26:21.585Z,17.53
2018-05-29T03:28:49.137Z,16.17
2018-05-29T03:31:16.752Z,17.73
2018-05-29T03:33:44.312Z,18.17
2018-05-29T03:36:11.957Z,17.87
2018-05-29T03:38:39.541Z,18.03
2018-05-29T03:41:07.099Z,19.00
2018-05-29T03:43:36.671Z,18.57
2018-05-29T03:46:04.248Z,20.10
2018-05-29T03:48:31.840Z,21.87
2018-05-29T03:50:59.380Z,19.00
2018-05-29T03:53:26.966Z,18.60
2018-05-29T03:55:54.549Z,17.80
2018-05-29T03:58:22.083Z,18.60
2018-05-29T04:00:49.653Z,18.50
2018-05-29T04:03:17.981Z,20.40
2018-05-29T04:05:45.567Z,18.63
2018-05-29T04:08:13.132Z,19.40
2018-05-29T04:10:40.706Z,21.20
2018-05-29T04:13:09.020Z,17.53
2018-05-29T04:15:36.603Z,14.70
2018-05-29T04:18:04.169Z,16.13
2018-05-29T04:20:31.707Z,15.00
2018-05-29T04:22:59.267Z,15.70
2018-05-29T04:25:26.834Z,14.90
2018-05-29T04:27:54.472Z,17.13
2018-05-29T04:30:22.023Z,17.70
2018-05-29T04:32:49.697Z,18.13
2018-05-29T04:35:17.225Z,19.27
2018-05-29T04:37:44.827Z,20.10
2018-05-29T04:40:12.359Z,24.27
2018-05-29T04:42:39.927Z,24.00
2018-05-29T04:45:07.509Z,24.57
2018-05-29T04:47:35.064Z,23.67
2018-05-29T04:50:02.672Z,25.60
2018-05-29T04:52:30.249Z,28.77
2018-05-29T04:54:57.837Z,27.20
2018-05-29T04:57:25.386Z,30.70
2018-05-29T04:59:52.950Z,35.60
2018-05-29T05:02:20.482Z,40.20
2018-05-29T05:04:48.068Z,48.50
2018-05-29T05:07:15.607Z,49.23
2018-05-29T05:09:43.208Z,50.70
2018-05-29T05:12:10.771Z,52.60
2018-05-29T05:14:38.379Z,55.53
2018-05-29T05:17:05.930Z,55.77
2018-05-29T05:19:33.519Z,62.70
2018-05-29T05:22:01.066Z,58.93
2018-05-29T05:24:28.654Z,62.53
2018-05-29T05:26:56.248Z,58.67
2018-05-29T05:29:23.788Z,61.20
2018-05-29T05:31:51.382Z,60.30
2018-05-29T05:34:18.965Z,58.27
2018-05-29T05:36:46.562Z,61.13
2018-05-29T05:39:14.981Z,62.83
2018-05-29T05:41:42.648Z,59.37
2018-05-29T05:44:10.266Z,60.83
2018-05-29T05:46:38.600Z,64.73
2018-05-29T05:49:06.396Z,60.63
2018-05-29T05:51:34.213Z,61.17
2018-05-29T05:54:02.369Z,64.63
2018-05-29T05:56:30.877Z,60.47
2018-05-29T05:59:00.258Z,64.50
2018-05-29T06:01:27.869Z,54.20
2018-05-29T06:03:55.699Z,65.13
2018-05-29T06:06:23.243Z,64.03
2018-05-29T06:08:50.835Z,60.47
2018-05-29T06:11:18.392Z,56.57
2018-05-29T06:13:45.958Z,52.43
2018-05-29T06:16:13.540Z,64.60
2018-05-29T06:18:41.122Z,64.90
2018-05-29T06:21:08.654Z,67.70
2018-05-29T06:23:36.224Z,64.13
2018-05-29T06:26:04.064Z,63.67
2018-05-29T06:28:32.357Z,69.00
2018-05-29T06:31:00.114Z,75.57
2018-05-29T06:33:27.662Z,77.27
2018-05-29T06:35:56.152Z,73.57
2018-05-29T06:38:23.849Z,61.17
2018-05-29T06:40:51.412Z,70.33
2018-05-29T06:43:18.990Z,62.73
2018-05-29T06:45:46.518Z,68.53
2018-05-29T06:48:14.084Z,70.53
2018-05-29T06:50:41.678Z,69.37
2018-05-29T06:53:10.002Z,55.07
2018-05-29T06:55:37.566Z,60.20
2018-05-29T06:58:05.132Z,65.10
2018-05-29T07:00:33.596Z,55.30
2018-05-29T07:03:01.181Z,72.80
2018-05-29T07:05:28.848Z,66.93
2018-05-29T07:07:56.424Z,72.07
2018-05-29T07:10:24.061Z,66.03
2018-05-29T07:12:51.623Z,65.63
2018-05-29T07:15:19.286Z,75.40
2018-05-29T07:17:46.815Z,73.93
2018-05-29T07:20:14.406Z,70.53
2018-05-29T07:22:41.962Z,74.40
2018-05-29T07:25:09.496Z,70.33
2018-05-29T07:27:37.194Z,64.87
2018-05-29T07:30:04.744Z,65.83
2018-05-29T07:32:33.085Z,66.83
2018-05-29T07:35:00.673Z,73.07
2018-05-29T07:37:28.227Z,76.10
2018-05-29T07:39:55.852Z,73.70
2018-05-29T07:42:23.446Z,77.93
2018-05-29T07:44:51.031Z,70.63
2018-05-29T07:47:18.613Z,76.73
2018-05-29T07:49:46.159Z,77.27
2018-05-29T07:52:14.477Z,70.43
2018-05-29T07:54:42.253Z,67.23
2018-05-29T07:57:09.831Z,68.30
2018-05-29T07:59:37.348Z,64.47
2018-05-29T08:02:04.912Z,75.47
2018-05-29T08:04:32.441Z,60.90
2018-05-29T08:07:00.021Z,75.67
2018-05-29T08:09:27.586Z,66.27
2018-05-29T08:11:55.769Z,81.03
2018-05-29T08:14:23.417Z,81.43
2018-05-29T08:16:50.986Z,87.40
2018-05-29T08:19:18.510Z,79.60
2018-05-29T08:21:46.101Z,80.47
2018-05-29T08:24:13.661Z,68.03
2018-05-29T08:26:41.243Z,65.67
2018-05-29T08:29:08.859Z,80.10
2018-05-29T08:31:36.411Z,80.33
2018-05-29T08:34:03.984Z,75.63
2018-05-29T08:36:31.546Z,64.80
2018-05-29T08:38:59.126Z,67.13
2018-05-29T08:41:26.701Z,70.20
2018-05-29T08:43:54.372Z,72.73
2018-05-29T08:46:21.995Z,70.47
2018-05-29T08:48:49.562Z,67.70
2018-05-29T08:51:18.667Z,62.70
2018-05-29T08:53:46.253Z,72.17
2018-05-29T08:56:14.560Z,79.60
2018-05-29T08:58:42.136Z,78.00
2018-05-29T09:01:13.070Z,71.20
2018-05-29T09:03:40.657Z,70.60
2018-05-29T09:06:08.194Z,73.43
2018-05-29T09:08:35.783Z,80.30
2018-05-29T09:11:04.125Z,72.40
2018-05-29T09:13:31.665Z,70.23
2018-05-29T09:15:59.246Z,61.33
2018-05-29T09:18:26.838Z,71.73
2018-05-29T09:20:55.332Z,64.87
2018-05-29T09:23:22.900Z,72.57
2018-05-29T09:25:50.496Z,71.93
2018-05-29T09:28:18.054Z,69.57
2018-05-29T09:30:45.642Z,65.40
2018-05-29T09:33:13.202Z,61.17
2018-05-29T09:35:40.780Z,65.53
2018-05-29T09:38:08.320Z,65.40
2018-05-29T09:40:36.680Z,61.53
2018-05-29T09:43:04.425Z,65.33
2018-05-29T09:45:32.002Z,61.23
2018-05-29T09:47:59.554Z,69.17
2018-05-29T09:50:27.160Z,61.73
2018-05-29T09:52:54.756Z,58.83
2018-05-29T09:55:22.308Z,56.07
2018-05-29T09:57:49.910Z,60.47
2018-05-29T10:00:23.370Z,57.23
2018-05-29T10:02:50.922Z,60.07
2018-05-29T10:05:18.464Z,60.37
2018-05-29T10:07:46.359Z,62.17
2018-05-29T10:10:13.951Z,66.23
2018-05-29T10:12:41.511Z,65.23
2018-05-29T10:15:09.106Z,60.60
2018-05-29T10:17:37.293Z,66.10
2018-05-29T10:20:04.879Z,59.17
2018-05-29T10:22:32.477Z,65.30
2018-05-29T10:25:00.066Z,65.93
2018-05-29T10:27:27.831Z,69.73
2018-05-29T10:29:55.409Z,67.57
2018-05-29T10:32:23.759Z,61.93
2018-05-29T10:34:51.297Z,61.20
2018-05-29T10:37:18.886Z,66.40
2018-05-29T10:39:46.458Z,66.97
2018-05-29T10:42:14.026Z,63.78
2018-05-29T10:44:41.599Z,58.57
2018-05-29T10:47:09.909Z,65.33
2018-05-29T10:49:37.482Z,61.10
2018-05-29T10:52:05.116Z,62.60
2018-05-29T10:54:32.706Z,60.37
2018-05-29T10:57:00.407Z,65.10
2018-05-29T10:59:27.988Z,64.17
2018-05-29T11:01:55.582Z,66.10
2018-05-29T11:04:23.122Z,60.93
2018-05-29T11:06:50.671Z,67.83
2018-05-29T11:09:18.255Z,68.57
2018-05-29T11:11:45.830Z,68.77
2018-05-29T11:14:13.418Z,70.10
2018-05-29T11:16:40.978Z,61.83
2018-05-29T11:19:09.318Z,73.27
2018-05-29T11:21:36.843Z,70.60
2018-05-29T11:24:04.417Z,75.80
2018-05-29T11:26:32.211Z,71.37
2018-05-29T11:28:59.779Z,70.30
2018-05-29T11:31:27.355Z,75.67
2018-05-29T11:33:54.955Z,71.67
2018-05-29T11:36:22.545Z,77.73
2018-05-29T11:38:50.089Z,72.37
2018-05-29T11:41:17.660Z,75.77
2018-05-29T11:43:45.193Z,71.77
2018-05-29T11:46:12.743Z,73.80
2018-05-29T11:48:40.309Z,79.10
2018-05-29T11:51:07.932Z,71.90
2018-05-29T11:53:35.517Z,78.07
2018-05-29T11:56:03.065Z,77.90
2018-05-29T11:58:30.641Z,73.80
2018-05-29T12:00:58.171Z,84.07
2018-05-29T12:03:25.763Z,84.50
2018-05-29T12:05:53.302Z,85.47
2018-05-29T12:08:20.879Z,88.87
2018-05-29T12:10:48.454Z,90.03
2018-05-29T12:13:15.985Z,83.93
2018-05-29T12:15:43.567Z,86.93
2018-05-29T12:18:11.335Z,82.00
2018-05-29T12:20:38.905Z,78.90
2018-05-29T12:23:06.443Z,80.07
2018-05-29T12:25:34.015Z,79.00
2018-05-29T12:28:01.550Z,88.43
2018-05-29T12:30:29.920Z,84.93
2018-05-29T12:32:57.453Z,77.30
2018-05-29T12:35:25.050Z,87.63
2018-05-29T12:37:52.589Z,84.77
2018-05-29T12:40:20.213Z,80.00
2018-05-29T12:42:47.735Z,75.63
2018-05-29T12:45:15.313Z,81.53
2018-05-29T12:47:43.637Z,84.37
2018-05-29T12:50:11.227Z,89.47
2018-05-29T12:52:38.828Z,72.17
2018-05-29T12:55:07.121Z,65.57
2018-05-29T12:57:34.713Z,61.13
2018-05-29T13:00:02.291Z,62.53
2018-05-29T13:02:29.878Z,63.20
2018-05-29T13:04:58.236Z,59.27
2018-05-29T13:07:25.768Z,53.60
2018-05-29T13:09:53.345Z,57.93
2018-05-29T13:12:20.880Z,58.13
2018-05-29T13:14:48.466Z,52.00
2018-05-29T13:17:16.762Z,61.73
2018-05-29T13:19:45.107Z,54.80
2018-05-29T13:22:12.678Z,61.00
2018-05-29T13:24:40.224Z,53.43
2018-05-29T13:27:07.845Z,56.10
2018-05-29T13:29:35.348Z,54.43
2018-05-29T13:32:03.698Z,51.53
2018-05-29T13:34:31.301Z,57.13
2018-05-29T13:36:58.836Z,55.80
2018-05-29T13:39:26.425Z,55.73
2018-05-29T13:41:54.015Z,62.63
2018-05-29T13:44:21.610Z,59.80
2018-05-29T13:46:49.137Z,65.57
2018-05-29T13:49:16.791Z,59.83
2018-05-29T13:51:44.557Z,59.60
2018-05-29T13:54:12.095Z,68.73
2018-05-29T13:56:39.658Z,67.23
2018-05-29T13:59:07.398Z,64.93
2018-05-29T14:01:35.001Z,66.67
2018-05-29T14:04:02.653Z,67.83
2018-05-29T14:06:30.781Z,65.60
2018-05-29T14:08:59.226Z,75.33
2018-05-29T14:11:26.806Z,69.97
2018-05-29T14:13:54.318Z,73.13
2018-05-29T14:16:21.852Z,71.33
2018-05-29T14:18:49.538Z,71.90
2018-05-29T14:21:17.089Z,68.67
2018-05-29T14:23:44.689Z,68.90
2018-05-29T14:26:12.211Z,73.20
2018-05-29T14:28:39.783Z,69.53
2018-05-29T14:31:08.129Z,65.23
2018-05-29T14:33:35.716Z,65.77
2018-05-29T14:36:03.299Z,62.30
2018-05-29T14:38:30.933Z,62.83
2018-05-29T14:40:58.446Z,68.03
2018-05-29T14:43:25.989Z,60.07
2018-05-29T14:45:54.338Z,67.23
2018-05-29T14:48:21.882Z,63.40
2018-05-29T14:50:49.562Z,65.70
2018-05-29T14:53:17.128Z,67.00
2018-05-29T14:55:44.753Z,65.27
2018-05-29T14:58:12.309Z,63.03
2018-05-29T15:00:39.977Z,60.83
2018-05-29T15:03:07.565Z,60.33
2018-05-29T15:05:35.110Z,59.33
2018-05-29T15:08:02.690Z,68.30
2018-05-29T15:10:30.217Z,72.43
2018-05-29T15:12:57.892Z,77.77
2018-05-29T15:15:25.429Z,77.83
2018-05-29T15:17:53.035Z,76.93
2018-05-29T15:20:20.657Z,67.90
2018-05-29T15:22:48.266Z,77.83
2018-05-29T15:25:15.800Z,77.93
2018-05-29T15:27:44.214Z,79.00
2018-05-29T15:30:11.825Z,71.53
2018-05-29T15:32:40.890Z,77.63
2018-05-29T15:35:08.744Z,67.83
2018-05-29T15:37:36.343Z,70.37
2018-05-29T15:40:03.880Z,72.97
2018-05-29T15:42:31.443Z,71.80
2018-05-29T15:44:59.010Z,74.67
2018-05-29T15:47:26.636Z,78.93
2018-05-29T15:49:54.258Z,67.33
2018-05-29T15:52:21.810Z,63.30
2018-05-29T15:54:50.155Z,58.50
2018-05-29T15:57:17.738Z,61.30
2018-05-29T15:59:45.375Z,55.07
2018-05-29T16:02:12.938Z,57.93
2018-05-29T16:04:40.549Z,56.40
2018-05-29T16:07:08.103Z,63.97
2018-05-29T16:09:35.711Z,50.17
2018-05-29T16:12:04.492Z,54.67
2018-05-29T16:14:32.101Z,54.70
2018-05-29T16:17:00.712Z,60.90
2018-05-29T16:19:28.260Z,60.17
2018-05-29T16:21:55.838Z,58.80
2018-05-29T16:24:23.389Z,63.57
2018-05-29T16:26:50.995Z,61.93
2018-05-29T16:29:18.596Z,60.53
2018-05-29T16:31:46.199Z,60.80
2018-05-29T16:34:13.767Z,60.37
2018-05-29T16:36:41.288Z,62.27
2018-05-29T16:39:08.864Z,70.60
2018-05-29T16:41:36.537Z,75.77
2018-05-29T16:44:04.094Z,73.57
2018-05-29T16:46:31.653Z,62.47
2018-05-29T16:48:59.269Z,71.53
2018-05-29T16:51:26.937Z,74.97
2018-05-29T16:53:55.512Z,70.43
2018-05-29T16:56:24.032Z,68.47
2018-05-29T16:58:51.656Z,73.07
2018-05-29T17:01:19.278Z,79.13
2018-05-29T17:03:47.641Z,79.70
2018-05-29T17:06:15.224Z,73.10
2018-05-29T17:08:42.921Z,71.20
2018-05-29T17:11:10.622Z,79.47
2018-05-29T17:13:38.192Z,80.97
2018-05-29T17:16:05.799Z,69.30
2018-05-29T17:18:33.325Z,70.43
2018-05-29T17:21:01.693Z,74.77
2018-05-29T17:23:29.991Z,66.57
2018-05-29T17:25:57.642Z,68.83
2018-05-29T17:28:27.819Z,64.03
2018-05-29T17:30:56.162Z,59.80
2018-05-29T17:33:23.845Z,59.17
2018-05-29T17:35:51.390Z,61.15
2018-05-29T17:38:19.031Z,57.43
2018-05-29T17:40:46.548Z,58.37
2018-05-29T17:43:14.130Z,57.43
2018-05-29T17:45:41.798Z,57.70
2018-05-29T17:48:09.570Z,59.23
2018-05-29T17:50:37.111Z,60.30
2018-05-29T17:53:04.686Z,50.70
2018-05-29T17:55:32.250Z,59.13
2018-05-29T17:57:59.877Z,63.33
2018-05-29T18:00:27.472Z,53.83
2018-05-29T18:02:55.016Z,55.13
2018-05-29T18:05:23.380Z,62.57
2018-05-29T18:07:51.129Z,62.83
2018-05-29T18:10:18.719Z,65.23
2018-05-29T18:12:46.270Z,61.60
2018-05-29T18:15:13.899Z,68.13
2018-05-29T18:17:41.510Z,65.03
2018-05-29T18:20:09.083Z,59.37
2018-05-29T18:22:36.622Z,57.57
2018-05-29T18:25:04.212Z,65.43
2018-05-29T18:27:31.803Z,67.10
2018-05-29T18:30:00.356Z,62.77
2018-05-29T18:32:27.988Z,62.93
2018-05-29T18:34:55.602Z,53.87
2018-05-29T18:37:23.912Z,58.00
2018-05-29T18:39:51.527Z,57.57
2018-05-29T18:42:19.093Z,51.07
2018-05-29T18:44:46.913Z,52.93
2018-05-29T18:47:14.462Z,49.47
2018-05-29T18:49:42.094Z,52.90
2018-05-29T18:52:09.868Z,50.83
2018-05-29T18:54:37.483Z,56.57
2018-05-29T18:57:05.094Z,56.67
2018-05-29T18:59:32.628Z,60.33
2018-05-29T19:02:01.097Z,63.70
2018-05-29T19:04:28.648Z,60.63
2018-05-29T19:06:56.220Z,49.57
2018-05-29T19:09:23.833Z,53.40
2018-05-29T19:11:51.384Z,58.67
2018-05-29T19:14:18.956Z,59.23
2018-05-29T19:16:46.507Z,67.10
2018-05-29T19:19:14.083Z,63.47
2018-05-29T19:21:41.708Z,69.37
2018-05-29T19:24:09.312Z,67.53
2018-05-29T19:26:36.868Z,70.53
2018-05-29T19:29:05.196Z,64.77
2018-05-29T19:31:32.722Z,61.63
2018-05-29T19:34:01.076Z,64.27
2018-05-29T19:36:29.392Z,86.13
2018-05-29T19:38:56.988Z,101.30
2018-05-29T19:41:24.554Z,109.87
2018-05-29T19:43:52.086Z,106.77
2018-05-29T19:46:19.668Z,87.60
2018-05-29T19:48:47.962Z,78.87
2018-05-29T19:51:16.355Z,77.37
2018-05-29T19:53:44.677Z,78.73
2018-05-29T19:56:12.264Z,92.53
2018-05-29T19:58:41.005Z,102.40
2018-05-29T20:01:08.638Z,107.70
2018-05-29T20:03:36.193Z,97.30
2018-05-29T20:06:04.563Z,100.30
2018-05-29T20:08:32.091Z,111.13
2018-05-29T20:10:59.682Z,116.27
2018-05-29T20:13:27.282Z,101.33
2018-05-29T20:15:54.796Z,92.90
2018-05-29T20:18:22.372Z,96.27
2018-05-29T20:20:50.032Z,98.77
2018-05-29T20:23:17.852Z,100.03
2018-05-29T20:25:45.371Z,97.30
2018-05-29T20:28:12.932Z,93.67
2018-05-29T20:30:40.475Z,93.27
2018-05-29T20:33:08.050Z,91.47
2018-05-29T20:35:35.649Z,91.93
2018-05-29T20:38:03.222Z,90.77
2018-05-29T20:40:30.816Z,89.63
2018-05-29T20:42:58.381Z,89.60
2018-05-29T20:45:25.952Z,90.17
2018-05-29T20:47:53.484Z,90.47
2018-05-29T20:50:21.049Z,87.80
2018-05-29T20:52:48.580Z,85.10
2018-05-29T20:55:16.202Z,85.30
2018-05-29T20:57:43.730Z,84.40
2018-05-29T21:00:11.304Z,84.23
2018-05-29T21:02:39.648Z,87.23
2018-05-29T21:05:07.289Z,83.60
2018-05-29T21:07:34.863Z,84.13
2018-05-29T21:10:02.636Z,83.87
2018-05-29T21:12:30.220Z,83.67
2018-05-29T21:14:57.820Z,80.43
2018-05-29T21:17:25.373Z,90.27
2018-05-29T21:19:52.929Z,95.40
2018-05-29T21:22:20.541Z,88.03
2018-05-29T21:24:48.811Z,85.37
2018-05-29T21:27:16.557Z,88.03
2018-05-29T21:29:44.170Z,90.73
2018-05-29T21:32:11.737Z,91.60
2018-05-29T21:34:39.329Z,99.97
2018-05-29T21:37:07.011Z,105.73
2018-05-29T21:39:34.603Z,103.93
2018-05-29T21:42:02.946Z,103.83
2018-05-29T21:44:30.686Z,102.87
2018-05-29T21:46:58.378Z,100.90
2018-05-29T21:49:25.952Z,104.30
2018-05-29T21:51:53.514Z,100.33
2018-05-29T21:54:21.872Z,97.07
2018-05-29T21:56:50.937Z,107.90
2018-05-29T21:59:18.521Z,105.07
2018-05-29T22:01:46.181Z,96.10
2018-05-29T22:04:13.710Z,82.30
2018-05-29T22:06:41.298Z,92.90
2018-05-29T22:09:08.856Z,115.33
2018-05-29T22:11:36.464Z,97.43
2018-05-29T22:14:04.147Z,104.33
2018-05-29T22:16:31.738Z,107.53
2018-05-29T22:18:59.319Z,87.00
2018-05-29T22:21:27.636Z,78.23
2018-05-29T22:23:55.216Z,84.60
2018-05-29T22:26:22.795Z,85.80
2018-05-29T22:28:50.664Z,80.37
2018-05-29T22:31:19.077Z,61.10
2018-05-29T22:33:47.403Z,78.60
2018-05-29T22:36:14.979Z,63.53
2018-05-29T22:38:43.274Z,70.23
2018-05-29T22:41:11.608Z,72.87
2018-05-29T22:43:39.143Z,69.40
2018-05-29T22:46:06.813Z,81.80
2018-05-29T22:48:34.380Z,67.53
2018-05-29T22:51:01.911Z,75.90
2018-05-29T22:53:29.523Z,75.23
2018-05-29T22:55:57.097Z,71.07
2018-05-29T22:58:24.694Z,64.97
2018-05-29T23:00:52.283Z,65.27
2018-05-29T23:03:19.934Z,61.23
2018-05-29T23:05:47.512Z,66.10
2018-05-29T23:08:15.123Z,62.00
2018-05-29T23:10:42.758Z,66.33
2018-05-29T23:13:10.347Z,73.37
2018-05-29T23:15:39.659Z,63.83
2018-05-29T23:18:07.264Z,61.67
2018-05-29T23:20:34.969Z,59.70
2018-05-29T23:23:02.548Z,53.70
2018-05-29T23:25:30.090Z,65.87
2018-05-29T23:27:57.667Z,60.73
2018-05-29T23:30:25.199Z,68.47
2018-05-29T23:32:52.747Z,62.53
2018-05-29T23:35:20.326Z,60.20
2018-05-29T23:37:47.979Z,57.60
2018-05-29T23:40:15.535Z,64.03
2018-05-29T23:42:43.117Z,64.07
2018-05-29T23:45:10.769Z,76.33
2018-05-29T23:47:38.347Z,67.87
2018-05-29T23:50:05.943Z,66.17
2018-05-29T23:52:33.525Z,64.50
2018-05-29T23:55:01.146Z,79.63
2018-05-29T23:57:29.473Z,66.50
2018-05-29T23:59:57.245Z,61.47
